Latest Weather Observations for Mildura

IDV60801

Issued at 6:02 am EST Wednesday 8 July 2015 (issued every 30 minutes, with the page automatically refreshed every 10 minutes)

About weather observations | Map of weather stations | Latest weather observations for VIC | Other Formats
Station Details ID: 076031 Name: MILDURA AIRPORT Lat: -34.24 Lon: 142.09 Height: 50.0 m
Data from the previous 72 hours. | See also: Recent months at Mildura
Date/Time
EST
Temp
°C
App
Temp
°C
Dew
Point
Rel
Hum
%
Delta-T
°C
Wind Press
QNH
hPa
Press
MSL
hPa
Rain
since 9 am
mm
Dir
 
Spd
km/h
Gust
km/h
Spd
kts
Gust
kts
08/06:00am 6.3 4.1 6.2 99 0.0 ENE 7 9 4 5 1024.1 1024.2 0.0
08/05:30am 5.7 3.4 5.6 99 0.0 E 7 11 4 6 1024.0 1024.1 0.0
08/05:08am 5.7 4.3 5.6 99 0.0 ESE 2 7 1 4 1023.9 1024.0 0.0
08/05:00am 5.6 3.4 5.5 99 0.0 E 6 9 3 5 1023.9 1024.0 0.0
08/04:30am 5.5 3.3 5.4 99 0.0 E 6 7 3 4 1024.0 1024.1 0.0
08/04:00am 5.5 4.5 5.4 99 0.0 CALM 0 0 0 0 1024.0 1024.1 0.0
08/03:39am 6.1 3.9 6.0 99 0.0 E 7 9 4 5 1023.9 1024.0 0.0
08/03:30am 5.7 3.4 5.6 99 0.0 ENE 7 9 4 5 1023.9 1024.0 0.0
08/03:00am 5.7 3.4 5.6 99 0.0 ESE 7 7 4 4 1024.0 1024.1 0.0
08/02:30am 5.8 4.4 5.7 99 0.0 S 2 9 1 5 1024.0 1024.1 0.0
08/02:18am 6.0 4.3 5.9 99 0.0 ESE 4 13 2 7 1023.9 1024.0 0.0
08/02:00am 6.1 4.0 6.0 99 0.0 NE 6 7 3 4 1023.8 1023.9 0.0
08/01:42am 6.6 4.7 6.5 99 0.0 NE 6 6 3 3 1023.9 1024.0 0.0
08/01:40am 6.7 4.8 6.6 99 0.0 NE 6 6 3 3 1023.9 1024.0 0.0
08/01:30am 7.0 5.1 6.9 99 0.0 NE 6 7 3 4 1023.9 1024.0 0.0
08/01:00am 6.6 4.7 6.5 99 0.0 E 6 7 3 4 1023.9 1024.0 0.0
08/12:30am 6.9 6.2 6.8 99 0.0 CALM 0 6 0 3 1024.0 1024.1 0.0
08/12:27am 6.8 5.7 6.7 99 0.0 ENE 2 7 1 4 1024.1 1024.2 0.0
08/12:00am 6.8 4.7 6.7 99 0.0 E 7 7 4 4 1024.2 1024.3 0.0
 
Date/Time
EST
Temp
°C
App
Temp
°C
Dew
Point
Rel
Hum
%
Delta-T
°C
Wind Press
QNH
hPa
Press
MSL
hPa
Rain
since 9 am
mm
Dir
 
Spd
km/h
Gust
km/h
Spd
kts
Gust
kts
07/11:51pm 6.9 4.8 6.8 99 0.0 E 7 7 4 4 1024.2 1024.3 0.0
07/11:30pm 6.9 4.8 6.8 99 0.0 E 7 7 4 4 1024.2 1024.3 0.0
07/11:00pm 6.9 5.0 6.8 99 0.0 ESE 6 7 3 4 1024.2 1024.3 0.0
07/10:30pm 6.0 4.3 5.7 98 0.1 SE 4 7 2 4 1024.1 1024.2 0.0
07/10:00pm 6.5 5.6 6.1 97 0.2 CALM 0 0 0 0 1024.0 1024.1 0.0
07/09:30pm 7.4 6.7 7.0 97 0.2 CALM 0 0 0 0 1023.8 1023.9 0.0
07/09:17pm 7.7 7.1 7.3 97 0.2 CALM 0 0 0 0 1023.8 1023.9 0.0
07/09:00pm 7.8 7.2 7.2 96 0.3 CALM 0 0 0 0 1023.7 1023.8 0.0
07/08:30pm 8.5 6.6 7.6 94 0.4 NE 7 7 4 4 1023.5 1023.6 0.0
07/08:00pm 9.0 6.7 7.6 91 0.7 NE 9 9 5 5 1023.4 1023.5 0.0
07/07:30pm 9.2 7.7 8.3 94 0.4 ENE 6 7 3 4 1023.3 1023.4 0.0
07/07:00pm 9.7 8.2 8.5 92 0.6 E 6 7 3 4 1023.1 1023.2 0.0
07/06:30pm 10.4 8.9 8.5 88 0.9 E 6 7 3 4 1022.7 1022.8 0.0
07/06:00pm 11.0 9.6 8.8 86 1.1 ENE 6 6 3 3 1022.6 1022.7 0.0
07/05:30pm 12.5 11.0 8.4 76 2.0 ENE 6 6 3 3 1022.3 1022.4 0.0
07/05:00pm 14.3 13.7 9.1 71 2.6 ENE 2 7 1 4 1022.1 1022.2 0.0
07/04:30pm 13.9 13.8 9.5 75 2.3 CALM 0 0 0 0 1022.0 1022.1 0.0
07/04:00pm 14.1 13.9 9.1 72 2.5 CALM 0 0 0 0 1021.8 1021.9 0.0
07/03:30pm 13.9 13.7 9.1 73 2.4 CALM 0 0 0 0 1021.8 1021.9 0.0
07/03:00pm 14.0 13.8 9.2 73 2.4 CALM 0 0 0 0 1021.7 1021.8 0.0
07/02:30pm 14.1 13.5 9.1 72 2.5 SSW 2 9 1 5 1021.6 1021.7 0.0
07/02:00pm 13.9 13.3 9.1 73 2.4 SSW 2 7 1 4 1021.7 1021.8 0.0
07/01:30pm 13.6 13.1 9.5 76 2.1 WNW 2 7 1 4 1021.8 1021.9 0.0
07/01:00pm 13.0 12.5 9.4 79 1.8 SW 2 7 1 4 1021.9 1022.0 0.0
07/12:30pm 13.4 11.9 9.3 76 2.1 SSW 7 9 4 5 1022.4 1022.5 0.0
07/12:00pm 13.1 11.8 10.1 82 1.5 SW 7 13 4 7 1022.6 1022.7 0.0
07/11:30am 12.8 11.7 10.0 83 1.4 WSW 6 11 3 6 1022.8 1022.9 0.0
07/11:21am 12.4 10.8 10.1 86 1.2 W 9 13 5 7 1022.9 1023.0 0.0
07/11:02am 12.3 10.8 10.4 88 1.0 WNW 9 13 5 7 1023.0 1023.1 0.0
07/11:00am 12.3 10.8 10.4 88 1.0 WNW 9 13 5 7 1023.0 1023.1 0.0
07/10:49am 11.5 10.3 10.4 93 0.6 W 7 11 4 6 1023.0 1023.1 0.0
07/10:30am 10.4 9.6 9.8 96 0.3 WNW 4 7 2 4 1023.1 1023.2 0.0
07/10:22am 9.8 8.5 9.2 96 0.3 NW 6 7 3 4 1023.1 1023.2 0.0
07/10:00am 9.5 8.1 8.7 95 0.4 NNW 6 7 3 4 1023.0 1023.1 0.0
07/09:53am 9.1 7.5 8.2 94 0.4 NNW 6 7 3 4 1022.9 1023.0 0.0
07/09:35am 8.6 7.0 8.0 96 0.3 NNW 6 7 3 4 1022.8 1022.9 0.0
07/09:30am 8.5 7.7 8.1 97 0.2 NNW 2 6 1 3 1022.8 1022.9 0.0
07/09:19am 8.1 6.8 7.8 98 0.1 N 4 7 2 4 1022.6 1022.7 0.0
07/09:00am 7.2 5.8 7.1 99 0.0 N 4 7 2 4 1022.5 1022.6 0.0
07/08:41am 5.8 3.7 5.7 99 0.0 N 6 7 3 4 1022.3 1022.4 0.0
07/08:30am 4.8 2.5 4.7 99 0.0 N 6 7 3 4 1022.3 1022.4 0.0
07/08:16am 4.8 2.3 4.7 99 0.0 N 7 9 4 5 1022.2 1022.3 0.0
07/08:13am 4.8 2.3 4.7 99 0.0 N 7 9 4 5 1022.2 1022.3 0.0
07/08:00am 4.2 1.8 4.1 99 0.0 N 6 9 3 5 1021.9 1022.0 0.0
07/07:30am 3.3 1.8 3.2 99 0.0 CALM 0 0 0 0 1021.6 1021.7 0.0
07/07:00am 3.1 0.8 2.8 98 0.1 NW 4 7 2 4 1021.1 1021.1 0.0
07/06:30am 3.2 0.5 2.9 98 0.1 WNW 6 7 3 4 1020.7 1020.7 0.0
07/06:00am 3.1 0.4 2.7 97 0.2 W 6 7 3 4 1020.3 1020.3 0.0
07/05:38am 3.5 0.9 3.1 97 0.2 WNW 6 7 3 4 1020.0 1020.0 0.0
07/05:30am 3.4 0.6 3.0 97 0.2 WNW 7 9 4 5 1020.0 1020.0 0.0
07/05:00am 3.6 2.1 3.0 96 0.2 CALM 0 0 0 0 1019.9 1019.9 0.0
07/04:30am 4.3 1.8 3.7 96 0.2 WNW 6 7 3 4 1019.8 1019.8 0.0
07/04:00am 5.2 2.3 4.6 96 0.3 W 9 11 5 6 1019.8 1019.8 0.0
07/03:30am 5.0 2.4 4.4 96 0.3 WSW 7 11 4 6 1019.8 1019.8 0.0
07/03:00am 5.5 2.6 4.8 95 0.3 WSW 9 9 5 5 1019.8 1019.8 0.0
07/02:30am 5.4 2.5 4.4 93 0.4 W 9 13 5 7 1019.7 1019.7 0.0
07/02:00am 5.9 3.0 4.7 92 0.5 W 9 11 5 6 1019.5 1019.5 0.0
07/01:30am 6.4 3.5 4.7 89 0.7 W 9 13 5 7 1019.4 1019.4 0.0
07/01:00am 7.1 3.9 5.1 87 0.9 W 11 15 6 8 1019.3 1019.3 0.0
07/12:30am 7.4 4.6 5.2 86 1.0 W 9 11 5 6 1019.3 1019.3 0.0
07/12:00am 7.4 4.7 5.5 88 0.8 WNW 9 11 5 6 1019.3 1019.3 0.0
 
Date/Time
EST
Temp
°C
App
Temp
°C
Dew
Point
Rel
Hum
%
Delta-T
°C
Wind Press
QNH
hPa
Press
MSL
hPa
Rain
since 9 am
mm
Dir
 
Spd
km/h
Gust
km/h
Spd
kts
Gust
kts
06/11:30pm 6.2 5.0 4.5 89 0.7 CALM 0 6 0 3 1019.4 1019.4 0.0
06/11:00pm 7.5 5.1 5.3 86 1.0 NW 7 9 4 5 1019.2 1019.2 0.0
06/10:30pm 8.0 5.6 5.3 83 1.2 WNW 7 9 4 5 1019.1 1019.1 0.0
06/10:00pm 8.7 6.3 5.4 80 1.5 WNW 7 9 4 5 1019.0 1019.0 0.0
06/09:30pm 9.8 7.6 6.0 77 1.8 WNW 7 9 4 5 1018.7 1018.7 0.0
06/09:00pm 10.7 8.7 6.3 74 2.1 NW 6 7 3 4 1018.5 1018.5 0.0
06/08:30pm 11.1 9.5 6.3 72 2.3 WNW 4 6 2 3 1018.4 1018.4 0.0
06/08:00pm 12.4 9.8 6.2 66 2.9 WSW 9 17 5 9 1018.3 1018.3 0.0
06/07:30pm 11.5 9.6 7.6 77 1.9 WNW 7 11 4 6 1017.9 1017.9 0.0
06/07:00pm 10.8 9.0 7.3 79 1.7 WNW 6 6 3 3 1017.5 1017.6 0.0
06/06:30pm 11.3 9.4 7.4 77 1.9 NW 7 9 4 5 1017.1 1017.2 0.0
06/06:00pm 12.1 10.2 7.4 73 2.3 NW 7 9 4 5 1016.8 1016.9 0.0
06/05:30pm 12.9 11.6 7.8 71 2.5 NW 4 7 2 4 1016.5 1016.6 0.0
06/05:00pm 14.2 12.3 7.5 64 3.3 NW 7 11 4 6 1016.2 1016.3 0.0
06/04:30pm 15.8 12.8 7.6 58 4.1 WNW 13 20 7 11 1016.1 1016.2 0.0
06/04:00pm 16.0 13.0 7.5 57 4.2 NW 13 17 7 9 1016.1 1016.2 0.0
06/03:30pm 15.8 11.5 6.8 55 4.4 WNW 19 24 10 13 1016.1 1016.2 0.0
06/03:00pm 15.7 11.7 6.7 55 4.4 NW 17 24 9 13 1016.0 1016.1 0.0
06/02:30pm 16.5 12.2 6.9 53 4.8 WNW 19 24 10 13 1016.0 1016.1 0.0
06/02:00pm 15.8 11.7 7.8 59 4.0 NW 19 30 10 16 1016.2 1016.3 0.0
06/01:30pm 15.3 11.5 7.6 60 3.8 NW 17 24 9 13 1016.4 1016.5 0.0
06/01:00pm 15.1 12.0 8.8 66 3.2 NW 15 20 8 11 1016.6 1016.7 0.0
06/12:30pm 13.3 9.5 7.5 68 2.8 NNW 17 22 9 12 1017.0 1017.1 0.0
06/12:00pm 13.5 10.9 7.7 68 2.9 NNW 11 17 6 9 1017.3 1017.4 0.0
06/11:30am 12.0 9.5 6.5 69 2.6 NNW 9 11 5 6 1017.7 1017.7 0.0
06/11:00am 10.7 8.6 6.8 77 1.8 NNW 7 11 4 6 1018.0 1018.0 0.0
06/10:30am 10.2 6.7 5.6 73 2.1 NW 13 20 7 11 1018.4 1018.4 0.0
06/10:00am 9.3 6.1 5.1 75 1.9 NNW 11 13 6 7 1018.1 1018.1 0.0
06/09:30am 9.0 6.2 5.0 76 1.8 NNW 9 13 5 7 1017.9 1017.9 0.0
06/09:00am 8.1 5.6 4.7 79 1.5 NW 7 11 4 6 1018.1 1018.1 0.0
06/08:30am 6.9 4.6 4.9 87 0.9 N 6 7 3 4 1017.9 1017.9 0.0
06/08:00am 5.9 3.4 3.9 87 0.8 NNE 6 7 3 4 1017.7 1017.7 0.0
06/07:30am 5.9 3.3 4.2 89 0.7 N 7 9 4 5 1017.5 1017.6 0.0
06/07:00am 4.8 2.0 3.1 89 0.7 N 7 9 4 5 1017.2 1017.3 0.0
06/06:30am 6.0 3.0 4.0 87 0.9 N 9 9 5 5 1017.2 1017.3 0.0
06/06:00am 5.8 3.1 3.5 85 1.0 N 7 9 4 5 1017.0 1017.1 0.0
06/05:30am 6.5 3.2 4.3 86 0.9 N 11 13 6 7 1016.7 1016.8 0.0
06/05:00am 6.7 3.8 4.9 88 0.8 N 9 11 5 6 1016.9 1017.0 0.0
06/04:30am 6.2 3.3 4.5 89 0.7 N 9 11 5 6 1016.9 1017.0 0.0
06/04:00am 6.2 3.7 4.5 89 0.7 N 7 9 4 5 1017.3 1017.4 0.0
06/03:30am 6.0 3.4 4.3 89 0.7 N 7 9 4 5 1017.4 1017.5 0.0
06/03:00am 5.5 2.5 4.2 91 0.6 NNE 9 9 5 5 1017.5 1017.6 0.0
06/02:30am 5.3 2.7 4.1 92 0.5 N 7 7 4 4 1017.8 1017.8 0.0
06/02:00am 5.5 2.9 4.0 90 0.6 N 7 7 4 4 1018.0 1018.0 0.0
06/01:30am 5.4 2.7 3.7 89 0.7 NNE 7 9 4 5 1018.1 1018.1 0.0
06/01:00am 4.7 1.5 2.9 88 0.7 NNE 9 11 5 6 1018.4 1018.4 0.0
06/12:30am 5.1 1.9 3.3 88 0.7 NE 9 9 5 5 1018.6 1018.6 0.0
06/12:00am 5.1 1.9 3.1 87 0.8 NE 9 11 5 6 1018.8 1018.8 0.0
 
Date/Time
EST
Temp
°C
App
Temp
°C
Dew
Point
Rel
Hum
%
Delta-T
°C
Wind Press
QNH
hPa
Press
MSL
hPa
Rain
since 9 am
mm
Dir
 
Spd
km/h
Gust
km/h
Spd
kts
Gust
kts
05/11:30pm 5.4 2.6 3.3 86 0.9 NE 7 9 4 5 1019.0 1019.0 0.0
05/11:00pm 5.5 2.8 3.5 87 0.8 NE 7 9 4 5 1019.1 1019.1 0.0
05/10:30pm 5.9 2.8 3.6 85 1.0 NNE 9 9 5 5 1019.0 1019.0 0.0
05/10:00pm 6.1 3.0 3.8 85 1.0 NNE 9 11 5 6 1019.0 1019.0 0.0
05/09:30pm 6.1 3.0 3.8 85 1.0 NNE 9 9 5 5 1018.9 1018.9 0.0
05/09:00pm 6.7 4.6 4.0 83 1.2 NNE 4 9 2 5 1018.9 1018.9 0.0
05/08:30pm 7.4 6.2 4.5 82 1.3 CALM 0 0 0 0 1019.0 1019.0 0.0
05/08:00pm 7.4 6.2 4.5 82 1.3 CALM 0 0 0 0 1019.0 1019.0 0.0
05/07:30pm 7.6 6.4 4.4 80 1.4 CALM 0 0 0 0 1019.1 1019.1 0.0
05/07:00pm 8.6 7.5 5.0 78 1.6 CALM 0 0 0 0 1019.0 1019.0 0.0
05/06:30pm 8.8 7.6 4.4 74 1.9 CALM 0 0 0 0 1019.0 1019.0 0.0
05/06:00pm 10.0 8.8 4.6 69 2.4 CALM 0 0 0 0 1018.9 1018.9 0.0
05/05:30pm 12.5 11.4 5.2 61 3.4 CALM 0 0 0 0 1018.8 1018.8 0.0
05/05:00pm 14.9 13.0 5.1 52 4.6 NW 4 6 2 3 1018.8 1018.8 0.0
05/04:30pm 15.5 14.5 5.4 51 4.8 CALM 0 0 0 0 1018.7 1018.7 0.0
05/04:00pm 14.9 12.0 4.9 51 4.7 WNW 9 13 5 7 1018.8 1018.8 0.0
05/03:30pm 15.1 12.6 5.0 51 4.8 WNW 7 13 4 7 1019.0 1019.0 0.0
05/03:00pm 14.7 11.9 5.0 52 4.5 WNW 9 15 5 8 1019.1 1019.1 0.0
05/02:30pm 14.5 11.9 6.1 57 4.0 NNW 9 15 5 8 1019.3 1019.3 0.0
05/02:00pm 13.8 11.0 5.2 56 4.0 NNW 9 17 5 9 1019.6 1019.6 0.0
05/01:30pm 13.7 11.3 5.1 56 4.0 NNW 7 13 4 7 1019.9 1019.9 0.0
05/01:00pm 12.9 9.6 4.8 58 3.7 NNW 11 20 6 11 1020.3 1020.3 0.0
05/12:30pm 12.7 9.4 4.7 58 3.7 NNW 11 17 6 9 1020.7 1020.7 0.0
05/12:00pm 11.9 8.2 4.2 59 3.5 N 13 19 7 10 1021.1 1021.1 0.0
05/11:30am 11.0 7.6 4.0 62 3.1 NNE 11 17 6 9 1021.6 1021.7 0.0
05/11:00am 10.1 6.2 3.4 63 2.9 NNE 13 17 7 9 1022.0 1022.1 0.0
05/10:30am 9.1 4.7 2.9 65 2.6 N 15 19 8 10 1022.2 1022.3 0.0
05/10:00am 8.6 4.3 3.4 70 2.2 NNE 15 19 8 10 1022.2 1022.3 0.0
05/09:30am 7.2 4.0 2.9 74 1.8 N 9 13 5 7 1022.3 1022.4 0.0
05/09:00am 5.2 1.9 2.7 84 1.0 NNE 9 11 5 6 1022.1 1022.2 0.0
05/08:30am 3.7 0.3 1.9 88 0.7 NNE 9 13 5 7 1022.0 1022.1 0.0
05/08:00am 2.8 -0.3 1.2 89 0.6 NE 7 9 4 5 1022.1 1022.2 0.0
05/07:30am 2.2 -1.0 0.9 91 0.5 ENE 7 9 4 5 1022.2 1022.3 0.0
05/07:00am 1.0 -2.3 0.0 93 0.4 ENE 7 9 4 5 1022.2 1022.3 0.0
05/06:30am 1.1 -2.0 0.1 93 0.4 ENE 6 7 3 4 1022.0 1022.1 0.0

Other Formats:

Comma delimited format used in spreadsheet applications
http://www.bom.gov.au/fwo/IDV60801/IDV60801.94693.axf

JavaScript Object Notation format (JSON) in row-major order
http://www.bom.gov.au/fwo/IDV60801/IDV60801.94693.json